sensor_id;sensor_type;location;lat;lon;timestamp;P1;durP1;ratioP1;P2;durP2;ratioP2
27925;SDS011;15267;47.838;12.128;2023-09-07T00:00:46;6.20;;;4.80;;
27925;SDS011;15267;47.838;12.128;2023-09-07T00:03:13;5.35;;;4.35;;
27925;SDS011;15267;47.838;12.128;2023-09-07T00:05:39;6.13;;;4.30;;
27925;SDS011;15267;47.838;12.128;2023-09-07T00:08:05;4.40;;;4.00;;
27925;SDS011;15267;47.838;12.128;2023-09-07T00:10:32;5.55;;;4.45;;
27925;SDS011;15267;47.838;12.128;2023-09-07T00:13:00;5.38;;;4.18;;
27925;SDS011;15267;47.838;12.128;2023-09-07T00:15:27;6.55;;;3.70;;
27925;SDS011;15267;47.838;12.128;2023-09-07T00:17:53;4.65;;;4.10;;
27925;SDS011;15267;47.838;12.128;2023-09-07T00:20:19;7.00;;;4.07;;
27925;SDS011;15267;47.838;12.128;2023-09-07T00:22:46;5.65;;;4.07;;
27925;SDS011;15267;47.838;12.128;2023-09-07T00:25:12;4.97;;;4.45;;
27925;SDS011;15267;47.838;12.128;2023-09-07T00:27:38;5.93;;;4.03;;
27925;SDS011;15267;47.838;12.128;2023-09-07T00:30:04;6.40;;;4.90;;
27925;SDS011;15267;47.838;12.128;2023-09-07T00:32:32;6.30;;;4.88;;
27925;SDS011;15267;47.838;12.128;2023-09-07T00:34:59;5.35;;;4.43;;
27925;SDS011;15267;47.838;12.128;2023-09-07T00:37:25;5.30;;;4.30;;
27925;SDS011;15267;47.838;12.128;2023-09-07T00:39:51;6.03;;;4.13;;
27925;SDS011;15267;47.838;12.128;2023-09-07T00:42:17;6.90;;;4.47;;
27925;SDS011;15267;47.838;12.128;2023-09-07T00:44:43;4.82;;;3.88;;
27925;SDS011;15267;47.838;12.128;2023-09-07T00:47:09;4.45;;;4.05;;
27925;SDS011;15267;47.838;12.128;2023-09-07T00:49:36;5.93;;;3.67;;
27925;SDS011;15267;47.838;12.128;2023-09-07T00:52:02;5.55;;;4.10;;
27925;SDS011;15267;47.838;12.128;2023-09-07T00:54:29;5.93;;;3.90;;
27925;SDS011;15267;47.838;12.128;2023-09-07T00:56:55;4.32;;;3.72;;
27925;SDS011;15267;47.838;12.128;2023-09-07T00:59:21;4.18;;;3.78;;
27925;SDS011;15267;47.838;12.128;2023-09-07T01:01:47;4.93;;;4.00;;
27925;SDS011;15267;47.838;12.128;2023-09-07T01:04:14;5.50;;;4.25;;
27925;SDS011;15267;47.838;12.128;2023-09-07T01:06:41;6.68;;;4.28;;
27925;SDS011;15267;47.838;12.128;2023-09-07T01:09:30;5.88;;;4.85;;
27925;SDS011;15267;47.838;12.128;2023-09-07T01:11:55;7.35;;;4.78;;
27925;SDS011;15267;47.838;12.128;2023-09-07T01:14:21;6.93;;;4.45;;
27925;SDS011;15267;47.838;12.128;2023-09-07T01:16:48;9.43;;;4.63;;
27925;SDS011;15267;47.838;12.128;2023-09-07T01:19:14;5.75;;;4.80;;
27925;SDS011;15267;47.838;12.128;2023-09-07T01:21:40;6.45;;;4.40;;
27925;SDS011;15267;47.838;12.128;2023-09-07T01:24:07;7.15;;;4.32;;
27925;SDS011;15267;47.838;12.128;2023-09-07T01:26:34;5.00;;;4.03;;
27925;SDS011;15267;47.838;12.128;2023-09-07T01:29:03;6.53;;;4.45;;
27925;SDS011;15267;47.838;12.128;2023-09-07T01:31:30;7.90;;;4.53;;
27925;SDS011;15267;47.838;12.128;2023-09-07T01:33:56;5.82;;;4.00;;
27925;SDS011;15267;47.838;12.128;2023-09-07T01:36:22;5.30;;;4.60;;
27925;SDS011;15267;47.838;12.128;2023-09-07T01:38:47;4.63;;;4.00;;
27925;SDS011;15267;47.838;12.128;2023-09-07T01:41:13;6.10;;;4.47;;
27925;SDS011;15267;47.838;12.128;2023-09-07T01:43:39;7.50;;;4.25;;
27925;SDS011;15267;47.838;12.128;2023-09-07T01:46:05;5.38;;;4.22;;
27925;SDS011;15267;47.838;12.128;2023-09-07T01:48:31;6.47;;;4.40;;
27925;SDS011;15267;47.838;12.128;2023-09-07T01:50:57;6.38;;;4.93;;
27925;SDS011;15267;47.838;12.128;2023-09-07T01:53:23;6.38;;;4.00;;
27925;SDS011;15267;47.838;12.128;2023-09-07T01:55:49;7.43;;;4.68;;
27925;SDS011;15267;47.838;12.128;2023-09-07T01:58:15;7.05;;;4.57;;
27925;SDS011;15267;47.838;12.128;2023-09-07T02:00:41;6.75;;;4.75;;
27925;SDS011;15267;47.838;12.128;2023-09-07T02:03:07;4.40;;;4.00;;
27925;SDS011;15267;47.838;12.128;2023-09-07T02:05:33;7.28;;;4.32;;
27925;SDS011;15267;47.838;12.128;2023-09-07T02:07:59;10.27;;;6.05;;
27925;SDS011;15267;47.838;12.128;2023-09-07T02:10:25;11.95;;;7.80;;
27925;SDS011;15267;47.838;12.128;2023-09-07T02:12:51;11.55;;;7.28;;
27925;SDS011;15267;47.838;12.128;2023-09-07T02:15:17;7.68;;;6.65;;
27925;SDS011;15267;47.838;12.128;2023-09-07T02:17:43;6.97;;;6.28;;
27925;SDS011;15267;47.838;12.128;2023-09-07T02:20:10;9.35;;;6.30;;
27925;SDS011;15267;47.838;12.128;2023-09-07T02:22:36;8.00;;;6.15;;
27925;SDS011;15267;47.838;12.128;2023-09-07T02:25:02;8.93;;;6.32;;
27925;SDS011;15267;47.838;12.128;2023-09-07T02:27:30;8.27;;;5.40;;
27925;SDS011;15267;47.838;12.128;2023-09-07T02:29:56;5.95;;;4.97;;
27925;SDS011;15267;47.838;12.128;2023-09-07T02:32:22;6.63;;;5.13;;
27925;SDS011;15267;47.838;12.128;2023-09-07T02:34:48;6.63;;;5.25;;
27925;SDS011;15267;47.838;12.128;2023-09-07T02:37:14;10.13;;;5.32;;
27925;SDS011;15267;47.838;12.128;2023-09-07T02:39:41;10.05;;;6.25;;
27925;SDS011;15267;47.838;12.128;2023-09-07T02:42:07;10.35;;;7.05;;
27925;SDS011;15267;47.838;12.128;2023-09-07T02:44:33;12.23;;;8.07;;
27925;SDS011;15267;47.838;12.128;2023-09-07T02:46:59;10.70;;;7.70;;
27925;SDS011;15267;47.838;12.128;2023-09-07T02:49:25;79.65;;;10.85;;
27925;SDS011;15267;47.838;12.128;2023-09-07T02:51:51;44.45;;;9.70;;
27925;SDS011;15267;47.838;12.128;2023-09-07T02:54:17;20.42;;;8.98;;
27925;SDS011;15267;47.838;12.128;2023-09-07T02:56:43;12.27;;;8.43;;
27925;SDS011;15267;47.838;12.128;2023-09-07T02:59:09;10.20;;;8.38;;
27925;SDS011;15267;47.838;12.128;2023-09-07T03:01:34;11.23;;;7.63;;
27925;SDS011;15267;47.838;12.128;2023-09-07T03:04:00;9.95;;;7.10;;
27925;SDS011;15267;47.838;12.128;2023-09-07T03:06:28;8.60;;;7.38;;
27925;SDS011;15267;47.838;12.128;2023-09-07T03:08:54;6.75;;;6.05;;
27925;SDS011;15267;47.838;12.128;2023-09-07T03:11:21;6.18;;;5.50;;
27925;SDS011;15267;47.838;12.128;2023-09-07T03:13:47;5.80;;;5.30;;
27925;SDS011;15267;47.838;12.128;2023-09-07T03:16:13;6.15;;;5.55;;
27925;SDS011;15267;47.838;12.128;2023-09-07T03:18:40;6.00;;;5.38;;
27925;SDS011;15267;47.838;12.128;2023-09-07T03:21:06;5.90;;;5.30;;
27925;SDS011;15267;47.838;12.128;2023-09-07T03:23:32;5.05;;;4.55;;
27925;SDS011;15267;47.838;12.128;2023-09-07T03:25:58;4.90;;;4.50;;
27925;SDS011;15267;47.838;12.128;2023-09-07T03:28:25;4.38;;;3.97;;
27925;SDS011;15267;47.838;12.128;2023-09-07T03:30:51;5.13;;;3.60;;
27925;SDS011;15267;47.838;12.128;2023-09-07T03:33:17;4.78;;;3.60;;
27925;SDS011;15267;47.838;12.128;2023-09-07T03:35:44;4.88;;;4.20;;
27925;SDS011;15267;47.838;12.128;2023-09-07T03:38:10;4.25;;;3.65;;
27925;SDS011;15267;47.838;12.128;2023-09-07T03:40:36;4.03;;;3.70;;
27925;SDS011;15267;47.838;12.128;2023-09-07T03:43:02;4.57;;;4.18;;
27925;SDS011;15267;47.838;12.128;2023-09-07T03:45:28;3.90;;;3.60;;
27925;SDS011;15267;47.838;12.128;2023-09-07T03:47:55;6.35;;;4.00;;
27925;SDS011;15267;47.838;12.128;2023-09-07T03:50:21;4.28;;;3.67;;
27925;SDS011;15267;47.838;12.128;2023-09-07T03:52:47;4.25;;;3.53;;
27925;SDS011;15267;47.838;12.128;2023-09-07T03:55:13;6.25;;;3.88;;
27925;SDS011;15267;47.838;12.128;2023-09-07T03:57:39;6.25;;;4.00;;
27925;SDS011;15267;47.838;12.128;2023-09-07T04:00:06;7.75;;;4.63;;
27925;SDS011;15267;47.838;12.128;2023-09-07T04:02:33;7.80;;;5.20;;
27925;SDS011;15267;47.838;12.128;2023-09-07T04:04:59;6.38;;;4.30;;
27925;SDS011;15267;47.838;12.128;2023-09-07T04:07:29;6.82;;;4.68;;
27925;SDS011;15267;47.838;12.128;2023-09-07T04:09:55;4.45;;;3.90;;
27925;SDS011;15267;47.838;12.128;2023-09-07T04:12:21;4.75;;;4.18;;
27925;SDS011;15267;47.838;12.128;2023-09-07T04:14:48;7.65;;;4.28;;
27925;SDS011;15267;47.838;12.128;2023-09-07T04:17:13;5.38;;;4.00;;
27925;SDS011;15267;47.838;12.128;2023-09-07T04:19:39;6.38;;;4.38;;
27925;SDS011;15267;47.838;12.128;2023-09-07T04:22:05;7.07;;;4.50;;
27925;SDS011;15267;47.838;12.128;2023-09-07T04:24:31;5.65;;;3.80;;
27925;SDS011;15267;47.838;12.128;2023-09-07T04:26:58;6.78;;;3.83;;
27925;SDS011;15267;47.838;12.128;2023-09-07T04:29:25;5.25;;;4.05;;
27925;SDS011;15267;47.838;12.128;2023-09-07T04:31:50;5.85;;;4.10;;
27925;SDS011;15267;47.838;12.128;2023-09-07T04:34:16;5.65;;;4.18;;
27925;SDS011;15267;47.838;12.128;2023-09-07T04:36:42;6.40;;;3.90;;
27925;SDS011;15267;47.838;12.128;2023-09-07T04:39:08;7.22;;;3.97;;
27925;SDS011;15267;47.838;12.128;2023-09-07T04:41:34;6.07;;;3.70;;
27925;SDS011;15267;47.838;12.128;2023-09-07T04:44:00;7.95;;;4.10;;
27925;SDS011;15267;47.838;12.128;2023-09-07T04:46:26;9.32;;;4.38;;
27925;SDS011;15267;47.838;12.128;2023-09-07T04:48:52;7.10;;;4.55;;
27925;SDS011;15267;47.838;12.128;2023-09-07T04:51:18;5.28;;;4.68;;
27925;SDS011;15267;47.838;12.128;2023-09-07T04:53:45;6.60;;;4.43;;
27925;SDS011;15267;47.838;12.128;2023-09-07T04:56:11;5.55;;;4.03;;
27925;SDS011;15267;47.838;12.128;2023-09-07T04:58:37;4.40;;;4.00;;
27925;SDS011;15267;47.838;12.128;2023-09-07T05:01:07;5.68;;;4.28;;
27925;SDS011;15267;47.838;12.128;2023-09-07T05:03:33;7.05;;;3.80;;
27925;SDS011;15267;47.838;12.128;2023-09-07T05:05:59;6.18;;;4.00;;
27925;SDS011;15267;47.838;12.128;2023-09-07T05:08:26;4.45;;;3.80;;
27925;SDS011;15267;47.838;12.128;2023-09-07T05:10:55;5.32;;;3.80;;
27925;SDS011;15267;47.838;12.128;2023-09-07T05:13:25;4.43;;;4.03;;
27925;SDS011;15267;47.838;12.128;2023-09-07T05:15:51;3.85;;;3.55;;
27925;SDS011;15267;47.838;12.128;2023-09-07T05:18:18;4.18;;;3.72;;
27925;SDS011;15267;47.838;12.128;2023-09-07T05:20:44;4.53;;;3.80;;
27925;SDS011;15267;47.838;12.128;2023-09-07T05:23:14;5.50;;;4.22;;
27925;SDS011;15267;47.838;12.128;2023-09-07T05:25:47;6.20;;;3.80;;
27925;SDS011;15267;47.838;12.128;2023-09-07T05:28:13;5.20;;;3.95;;
27925;SDS011;15267;47.838;12.128;2023-09-07T05:30:40;5.75;;;3.67;;
27925;SDS011;15267;47.838;12.128;2023-09-07T05:33:06;5.38;;;4.07;;
27925;SDS011;15267;47.838;12.128;2023-09-07T05:35:33;8.90;;;5.45;;
27925;SDS011;15267;47.838;12.128;2023-09-07T05:37:59;8.93;;;5.60;;
27925;SDS011;15267;47.838;12.128;2023-09-07T05:40:25;6.50;;;5.35;;
27925;SDS011;15267;47.838;12.128;2023-09-07T05:42:51;6.15;;;5.55;;
27925;SDS011;15267;47.838;12.128;2023-09-07T05:45:17;9.75;;;5.10;;
27925;SDS011;15267;47.838;12.128;2023-09-07T05:47:43;7.57;;;5.22;;
27925;SDS011;15267;47.838;12.128;2023-09-07T05:50:09;5.97;;;5.13;;
27925;SDS011;15267;47.838;12.128;2023-09-07T05:52:35;6.28;;;5.20;;
27925;SDS011;15267;47.838;12.128;2023-09-07T05:55:01;5.18;;;4.68;;
27925;SDS011;15267;47.838;12.128;2023-09-07T05:57:27;5.63;;;4.82;;
27925;SDS011;15267;47.838;12.128;2023-09-07T05:59:53;5.50;;;5.00;;
27925;SDS011;15267;47.838;12.128;2023-09-07T06:02:19;5.68;;;5.18;;
27925;SDS011;15267;47.838;12.128;2023-09-07T06:04:45;5.80;;;5.20;;
27925;SDS011;15267;47.838;12.128;2023-09-07T06:07:11;5.85;;;4.93;;
27925;SDS011;15267;47.838;12.128;2023-09-07T06:09:37;5.80;;;5.30;;
27925;SDS011;15267;47.838;12.128;2023-09-07T06:12:03;6.07;;;5.38;;
27925;SDS011;15267;47.838;12.128;2023-09-07T06:14:29;6.40;;;5.80;;
27925;SDS011;15267;47.838;12.128;2023-09-07T06:16:55;5.55;;;5.05;;
27925;SDS011;15267;47.838;12.128;2023-09-07T06:19:20;6.03;;;5.53;;
27925;SDS011;15267;47.838;12.128;2023-09-07T06:21:46;6.28;;;5.75;;
27925;SDS011;15267;47.838;12.128;2023-09-07T06:24:12;5.85;;;5.35;;
27925;SDS011;15267;47.838;12.128;2023-09-07T06:26:39;5.90;;;5.40;;
27925;SDS011;15267;47.838;12.128;2023-09-07T06:29:06;6.72;;;6.13;;
27925;SDS011;15267;47.838;12.128;2023-09-07T06:31:32;6.55;;;5.95;;
27925;SDS011;15267;47.838;12.128;2023-09-07T06:33:58;5.97;;;5.45;;
27925;SDS011;15267;47.838;12.128;2023-09-07T06:36:24;7.90;;;6.15;;
27925;SDS011;15267;47.838;12.128;2023-09-07T06:38:50;8.35;;;6.82;;
27925;SDS011;15267;47.838;12.128;2023-09-07T06:41:16;7.60;;;6.75;;
27925;SDS011;15267;47.838;12.128;2023-09-07T06:43:42;7.97;;;6.28;;
27925;SDS011;15267;47.838;12.128;2023-09-07T06:46:08;8.00;;;6.90;;
27925;SDS011;15267;47.838;12.128;2023-09-07T06:48:34;10.32;;;6.47;;
27925;SDS011;15267;47.838;12.128;2023-09-07T06:51:04;8.85;;;6.75;;
27925;SDS011;15267;47.838;12.128;2023-09-07T06:53:31;10.02;;;6.72;;
27925;SDS011;15267;47.838;12.128;2023-09-07T06:56:00;8.27;;;7.15;;
27925;SDS011;15267;47.838;12.128;2023-09-07T06:58:26;9.43;;;6.85;;
27925;SDS011;15267;47.838;12.128;2023-09-07T07:00:52;8.95;;;7.47;;
27925;SDS011;15267;47.838;12.128;2023-09-07T07:03:18;8.23;;;7.00;;
27925;SDS011;15267;47.838;12.128;2023-09-07T07:05:44;9.05;;;8.25;;
27925;SDS011;15267;47.838;12.128;2023-09-07T07:08:10;9.05;;;8.18;;
27925;SDS011;15267;47.838;12.128;2023-09-07T07:10:36;11.52;;;8.93;;
27925;SDS011;15267;47.838;12.128;2023-09-07T07:13:03;11.27;;;8.80;;
27925;SDS011;15267;47.838;12.128;2023-09-07T07:15:29;11.10;;;8.13;;
27925;SDS011;15267;47.838;12.128;2023-09-07T07:17:55;9.63;;;8.50;;
27925;SDS011;15267;47.838;12.128;2023-09-07T07:20:20;8.82;;;8.02;;
27925;SDS011;15267;47.838;12.128;2023-09-07T07:22:47;10.10;;;8.93;;
27925;SDS011;15267;47.838;12.128;2023-09-07T07:25:12;9.95;;;8.95;;
27925;SDS011;15267;47.838;12.128;2023-09-07T07:27:38;10.45;;;9.32;;
27925;SDS011;15267;47.838;12.128;2023-09-07T07:30:05;16.02;;;9.57;;
27925;SDS011;15267;47.838;12.128;2023-09-07T07:32:31;9.65;;;8.73;;
27925;SDS011;15267;47.838;12.128;2023-09-07T07:34:56;10.55;;;9.55;;
27925;SDS011;15267;47.838;12.128;2023-09-07T07:37:23;10.88;;;9.60;;
27925;SDS011;15267;47.838;12.128;2023-09-07T07:39:49;12.82;;;8.75;;
27925;SDS011;15267;47.838;12.128;2023-09-07T07:42:15;10.93;;;8.48;;
27925;SDS011;15267;47.838;12.128;2023-09-07T07:44:41;10.93;;;8.48;;
27925;SDS011;15267;47.838;12.128;2023-09-07T07:47:07;10.38;;;9.27;;
27925;SDS011;15267;47.838;12.128;2023-09-07T07:49:33;9.82;;;8.63;;
27925;SDS011;15267;47.838;12.128;2023-09-07T07:51:59;10.23;;;9.27;;
27925;SDS011;15267;47.838;12.128;2023-09-07T07:54:25;9.60;;;8.70;;
27925;SDS011;15267;47.838;12.128;2023-09-07T07:56:53;9.52;;;8.55;;
27925;SDS011;15267;47.838;12.128;2023-09-07T07:59:19;9.32;;;8.15;;
27925;SDS011;15267;47.838;12.128;2023-09-07T08:01:45;10.27;;;9.18;;
27925;SDS011;15267;47.838;12.128;2023-09-07T08:04:11;9.85;;;8.60;;
27925;SDS011;15267;47.838;12.128;2023-09-07T08:06:37;9.73;;;8.18;;
27925;SDS011;15267;47.838;12.128;2023-09-07T08:09:03;12.57;;;8.70;;
27925;SDS011;15267;47.838;12.128;2023-09-07T08:11:29;8.50;;;7.38;;
27925;SDS011;15267;47.838;12.128;2023-09-07T08:13:55;9.07;;;8.18;;
27925;SDS011;15267;47.838;12.128;2023-09-07T08:16:21;10.48;;;8.65;;
27925;SDS011;15267;47.838;12.128;2023-09-07T08:18:47;9.85;;;8.82;;
27925;SDS011;15267;47.838;12.128;2023-09-07T08:21:13;9.90;;;8.90;;
27925;SDS011;15267;47.838;12.128;2023-09-07T08:23:40;10.65;;;9.02;;
27925;SDS011;15267;47.838;12.128;2023-09-07T08:26:05;10.20;;;8.82;;
27925;SDS011;15267;47.838;12.128;2023-09-07T08:28:34;14.10;;;9.13;;
27925;SDS011;15267;47.838;12.128;2023-09-07T08:31:00;10.25;;;8.13;;
27925;SDS011;15267;47.838;12.128;2023-09-07T08:33:26;11.38;;;8.30;;
27925;SDS011;15267;47.838;12.128;2023-09-07T08:35:54;8.90;;;7.55;;
27925;SDS011;15267;47.838;12.128;2023-09-07T08:38:20;8.93;;;8.02;;
27925;SDS011;15267;47.838;12.128;2023-09-07T08:40:49;8.77;;;7.85;;
27925;SDS011;15267;47.838;12.128;2023-09-07T08:43:16;8.90;;;8.00;;
27925;SDS011;15267;47.838;12.128;2023-09-07T08:45:46;10.27;;;7.82;;
27925;SDS011;15267;47.838;12.128;2023-09-07T08:48:14;9.90;;;7.90;;
27925;SDS011;15267;47.838;12.128;2023-09-07T08:50:42;12.00;;;7.38;;
27925;SDS011;15267;47.838;12.128;2023-09-07T08:53:14;11.05;;;8.00;;
27925;SDS011;15267;47.838;12.128;2023-09-07T08:55:40;11.95;;;7.72;;
27925;SDS011;15267;47.838;12.128;2023-09-07T08:58:06;12.55;;;8.43;;
27925;SDS011;15267;47.838;12.128;2023-09-07T09:00:32;9.85;;;7.80;;
27925;SDS011;15267;47.838;12.128;2023-09-07T09:02:58;13.05;;;7.80;;
27925;SDS011;15267;47.838;12.128;2023-09-07T09:05:24;10.27;;;7.68;;
27925;SDS011;15267;47.838;12.128;2023-09-07T09:08:01;13.32;;;8.18;;
27925;SDS011;15267;47.838;12.128;2023-09-07T09:10:28;8.85;;;7.57;;
27925;SDS011;15267;47.838;12.128;2023-09-07T09:12:54;11.23;;;7.18;;
27925;SDS011;15267;47.838;12.128;2023-09-07T09:15:21;10.13;;;7.72;;
27925;SDS011;15267;47.838;12.128;2023-09-07T09:17:47;10.27;;;6.88;;
27925;SDS011;15267;47.838;12.128;2023-09-07T09:20:19;10.75;;;7.00;;
27925;SDS011;15267;47.838;12.128;2023-09-07T09:22:47;12.50;;;7.40;;
27925;SDS011;15267;47.838;12.128;2023-09-07T09:25:13;7.97;;;7.18;;
27925;SDS011;15267;47.838;12.128;2023-09-07T09:27:39;7.15;;;6.40;;
27925;SDS011;15267;47.838;12.128;2023-09-07T09:30:05;7.85;;;6.32;;
27925;SDS011;15267;47.838;12.128;2023-09-07T09:32:31;9.02;;;6.95;;
27925;SDS011;15267;47.838;12.128;2023-09-07T09:34:57;12.55;;;7.07;;
27925;SDS011;15267;47.838;12.128;2023-09-07T09:37:27;11.38;;;7.03;;
27925;SDS011;15267;47.838;12.128;2023-09-07T09:39:53;7.90;;;6.60;;
27925;SDS011;15267;47.838;12.128;2023-09-07T09:42:20;9.70;;;6.80;;
27925;SDS011;15267;47.838;12.128;2023-09-07T09:44:47;8.52;;;6.60;;
27925;SDS011;15267;47.838;12.128;2023-09-07T09:47:15;8.25;;;6.55;;
27925;SDS011;15267;47.838;12.128;2023-09-07T09:49:41;11.20;;;5.80;;
27925;SDS011;15267;47.838;12.128;2023-09-07T09:52:07;8.50;;;6.43;;
27925;SDS011;15267;47.838;12.128;2023-09-07T09:54:34;8.50;;;5.78;;
27925;SDS011;15267;47.838;12.128;2023-09-07T09:57:01;9.48;;;5.78;;
27925;SDS011;15267;47.838;12.128;2023-09-07T09:59:27;8.32;;;6.05;;
27925;SDS011;15267;47.838;12.128;2023-09-07T10:01:53;8.32;;;5.57;;
27925;SDS011;15267;47.838;12.128;2023-09-07T10:04:19;8.80;;;6.07;;
27925;SDS011;15267;47.838;12.128;2023-09-07T10:06:54;6.82;;;5.85;;
27925;SDS011;15267;47.838;12.128;2023-09-07T10:11:53;8.70;;;6.10;;
27925;SDS011;15267;47.838;12.128;2023-09-07T10:14:19;9.02;;;6.03;;
27925;SDS011;15267;47.838;12.128;2023-09-07T10:16:49;9.32;;;5.93;;
27925;SDS011;15267;47.838;12.128;2023-09-07T10:19:18;7.38;;;5.57;;
27925;SDS011;15267;47.838;12.128;2023-09-07T10:21:44;8.52;;;5.93;;
27925;SDS011;15267;47.838;12.128;2023-09-07T10:24:10;6.30;;;5.22;;
27925;SDS011;15267;47.838;12.128;2023-09-07T10:26:36;7.63;;;5.78;;
27925;SDS011;15267;47.838;12.128;2023-09-07T10:29:02;10.18;;;5.70;;
27925;SDS011;15267;47.838;12.128;2023-09-07T10:31:30;8.80;;;5.80;;
27925;SDS011;15267;47.838;12.128;2023-09-07T10:33:56;7.43;;;5.10;;
27925;SDS011;15267;47.838;12.128;2023-09-07T10:36:33;7.15;;;5.20;;
27925;SDS011;15267;47.838;12.128;2023-09-07T10:39:00;8.70;;;5.50;;
27925;SDS011;15267;47.838;12.128;2023-09-07T10:41:26;10.18;;;5.35;;
27925;SDS011;15267;47.838;12.128;2023-09-07T10:43:55;7.72;;;5.50;;
27925;SDS011;15267;47.838;12.128;2023-09-07T10:46:22;8.15;;;4.97;;
27925;SDS011;15267;47.838;12.128;2023-09-07T10:48:49;9.18;;;4.93;;
27925;SDS011;15267;47.838;12.128;2023-09-07T10:51:19;7.55;;;4.80;;
27925;SDS011;15267;47.838;12.128;2023-09-07T10:53:45;8.23;;;4.65;;
27925;SDS011;15267;47.838;12.128;2023-09-07T10:56:11;8.60;;;4.93;;
27925;SDS011;15267;47.838;12.128;2023-09-07T10:58:37;6.68;;;4.43;;
27925;SDS011;15267;47.838;12.128;2023-09-07T11:01:05;6.32;;;4.40;;
27925;SDS011;15267;47.838;12.128;2023-09-07T11:03:32;8.32;;;4.72;;
27925;SDS011;15267;47.838;12.128;2023-09-07T11:06:12;9.10;;;4.80;;
27925;SDS011;15267;47.838;12.128;2023-09-07T11:08:40;8.77;;;5.22;;
27925;SDS011;15267;47.838;12.128;2023-09-07T11:11:07;6.82;;;4.68;;
27925;SDS011;15267;47.838;12.128;2023-09-07T11:13:33;6.80;;;4.40;;
27925;SDS011;15267;47.838;12.128;2023-09-07T11:16:00;9.05;;;4.72;;
27925;SDS011;15267;47.838;12.128;2023-09-07T11:18:26;4.88;;;4.30;;
27925;SDS011;15267;47.838;12.128;2023-09-07T11:20:52;4.88;;;4.38;;
27925;SDS011;15267;47.838;12.128;2023-09-07T11:23:20;7.28;;;4.45;;
27925;SDS011;15267;47.838;12.128;2023-09-07T11:25:46;10.18;;;4.47;;
27925;SDS011;15267;47.838;12.128;2023-09-07T11:28:14;6.15;;;4.18;;
27925;SDS011;15267;47.838;12.128;2023-09-07T11:33:16;4.72;;;4.05;;
27925;SDS011;15267;47.838;12.128;2023-09-07T11:35:42;5.05;;;4.30;;
27925;SDS011;15267;47.838;12.128;2023-09-07T11:38:08;5.35;;;4.10;;
27925;SDS011;15267;47.838;12.128;2023-09-07T11:40:36;7.13;;;4.38;;
27925;SDS011;15267;47.838;12.128;2023-09-07T11:43:02;8.48;;;4.32;;
27925;SDS011;15267;47.838;12.128;2023-09-07T11:45:28;9.65;;;4.13;;
27925;SDS011;15267;47.838;12.128;2023-09-07T11:47:54;6.10;;;4.32;;
27925;SDS011;15267;47.838;12.128;2023-09-07T11:50:23;5.18;;;4.32;;
27925;SDS011;15267;47.838;12.128;2023-09-07T11:52:50;6.07;;;4.22;;
27925;SDS011;15267;47.838;12.128;2023-09-07T11:55:16;4.88;;;4.00;;
27925;SDS011;15267;47.838;12.128;2023-09-07T11:57:42;5.05;;;4.47;;
27925;SDS011;15267;47.838;12.128;2023-09-07T12:00:09;5.82;;;3.90;;
27925;SDS011;15267;47.838;12.128;2023-09-07T12:02:36;5.97;;;4.22;;
27925;SDS011;15267;47.838;12.128;2023-09-07T12:05:01;8.05;;;4.32;;
27925;SDS011;15267;47.838;12.128;2023-09-07T12:07:28;5.68;;;4.15;;
27925;SDS011;15267;47.838;12.128;2023-09-07T12:09:55;4.47;;;4.07;;
27925;SDS011;15267;47.838;12.128;2023-09-07T12:12:22;5.85;;;4.13;;
27925;SDS011;15267;47.838;12.128;2023-09-07T12:14:48;4.85;;;4.10;;
27925;SDS011;15267;47.838;12.128;2023-09-07T12:17:14;6.75;;;3.90;;
27925;SDS011;15267;47.838;12.128;2023-09-07T12:19:40;5.60;;;4.00;;
27925;SDS011;15267;47.838;12.128;2023-09-07T12:22:07;7.20;;;4.03;;
27925;SDS011;15267;47.838;12.128;2023-09-07T12:24:33;6.25;;;4.13;;
27925;SDS011;15267;47.838;12.128;2023-09-07T12:26:59;5.40;;;3.90;;
27925;SDS011;15267;47.838;12.128;2023-09-07T12:29:25;4.07;;;3.65;;
27925;SDS011;15267;47.838;12.128;2023-09-07T12:31:51;5.45;;;4.00;;
27925;SDS011;15267;47.838;12.128;2023-09-07T12:34:17;7.65;;;4.03;;
27925;SDS011;15267;47.838;12.128;2023-09-07T12:36:43;5.82;;;3.80;;
27925;SDS011;15267;47.838;12.128;2023-09-07T12:39:09;5.13;;;3.83;;
27925;SDS011;15267;47.838;12.128;2023-09-07T12:41:37;4.10;;;3.70;;
27925;SDS011;15267;47.838;12.128;2023-09-07T12:44:03;5.78;;;4.00;;
27925;SDS011;15267;47.838;12.128;2023-09-07T12:46:29;5.97;;;3.90;;
27925;SDS011;15267;47.838;12.128;2023-09-07T12:48:55;6.25;;;4.07;;
27925;SDS011;15267;47.838;12.128;2023-09-07T12:51:21;4.95;;;3.97;;
27925;SDS011;15267;47.838;12.128;2023-09-07T12:53:47;4.43;;;3.80;;
27925;SDS011;15267;47.838;12.128;2023-09-07T12:56:13;4.20;;;3.80;;
27925;SDS011;15267;47.838;12.128;2023-09-07T12:58:40;4.70;;;3.80;;
27925;SDS011;15267;47.838;12.128;2023-09-07T13:01:06;4.30;;;3.42;;
27925;SDS011;15267;47.838;12.128;2023-09-07T13:03:34;4.80;;;3.70;;
27925;SDS011;15267;47.838;12.128;2023-09-07T13:06:01;4.60;;;3.55;;
27925;SDS011;15267;47.838;12.128;2023-09-07T13:08:28;3.90;;;3.35;;
27925;SDS011;15267;47.838;12.128;2023-09-07T13:10:54;4.00;;;3.35;;
27925;SDS011;15267;47.838;12.128;2023-09-07T13:13:20;4.38;;;3.40;;
27925;SDS011;15267;47.838;12.128;2023-09-07T13:15:47;4.40;;;3.60;;
27925;SDS011;15267;47.838;12.128;2023-09-07T13:18:13;3.38;;;3.08;;
27925;SDS011;15267;47.838;12.128;2023-09-07T13:20:39;5.45;;;3.53;;
27925;SDS011;15267;47.838;12.128;2023-09-07T13:23:05;4.68;;;3.53;;
27925;SDS011;15267;47.838;12.128;2023-09-07T13:25:31;5.95;;;3.72;;
27925;SDS011;15267;47.838;12.128;2023-09-07T13:27:57;3.95;;;3.60;;
27925;SDS011;15267;47.838;12.128;2023-09-07T13:30:23;4.47;;;3.80;;
27925;SDS011;15267;47.838;12.128;2023-09-07T13:32:49;5.00;;;3.85;;
27925;SDS011;15267;47.838;12.128;2023-09-07T13:35:15;8.23;;;4.10;;
27925;SDS011;15267;47.838;12.128;2023-09-07T13:37:41;6.88;;;3.70;;
27925;SDS011;15267;47.838;12.128;2023-09-07T13:40:08;7.55;;;3.90;;
27925;SDS011;15267;47.838;12.128;2023-09-07T13:42:34;4.55;;;3.65;;
27925;SDS011;15267;47.838;12.128;2023-09-07T13:45:00;4.82;;;3.63;;
27925;SDS011;15267;47.838;12.128;2023-09-07T13:47:26;6.85;;;3.55;;
27925;SDS011;15267;47.838;12.128;2023-09-07T13:49:52;4.15;;;3.35;;
27925;SDS011;15267;47.838;12.128;2023-09-07T13:52:18;4.00;;;3.50;;
27925;SDS011;15267;47.838;12.128;2023-09-07T13:54:44;4.47;;;3.25;;
27925;SDS011;15267;47.838;12.128;2023-09-07T13:57:10;4.93;;;3.58;;
27925;SDS011;15267;47.838;12.128;2023-09-07T13:59:36;3.55;;;3.25;;
27925;SDS011;15267;47.838;12.128;2023-09-07T14:02:02;4.15;;;3.58;;
27925;SDS011;15267;47.838;12.128;2023-09-07T14:04:27;3.65;;;3.35;;
27925;SDS011;15267;47.838;12.128;2023-09-07T14:06:55;4.60;;;3.03;;
27925;SDS011;15267;47.838;12.128;2023-09-07T14:09:21;3.50;;;3.08;;
27925;SDS011;15267;47.838;12.128;2023-09-07T14:11:50;3.22;;;2.92;;
27925;SDS011;15267;47.838;12.128;2023-09-07T14:14:16;6.88;;;3.17;;
27925;SDS011;15267;47.838;12.128;2023-09-07T14:16:42;4.15;;;3.05;;
27925;SDS011;15267;47.838;12.128;2023-09-07T14:19:08;4.38;;;3.13;;
27925;SDS011;15267;47.838;12.128;2023-09-07T14:21:34;4.70;;;3.33;;
27925;SDS011;15267;47.838;12.128;2023-09-07T14:24:00;4.88;;;3.42;;
27925;SDS011;15267;47.838;12.128;2023-09-07T14:26:28;3.70;;;3.15;;
27925;SDS011;15267;47.838;12.128;2023-09-07T14:28:54;4.63;;;2.97;;
27925;SDS011;15267;47.838;12.128;2023-09-07T14:31:20;4.32;;;2.70;;
27925;SDS011;15267;47.838;12.128;2023-09-07T14:33:46;3.85;;;3.00;;